sensor_id;sensor_type;location;lat;lon;timestamp;P1;durP1;ratioP1;P2;durP2;ratioP2
11887;SDS011;6003;42.756;23.130;2022-10-30T00:01:42;6.07;;;5.27;;
11887;SDS011;6003;42.756;23.130;2022-10-30T00:04:10;6.90;;;5.67;;
11887;SDS011;6003;42.756;23.130;2022-10-30T00:06:37;5.70;;;5.20;;
11887;SDS011;6003;42.756;23.130;2022-10-30T00:09:05;6.97;;;5.57;;
11887;SDS011;6003;42.756;23.130;2022-10-30T00:11:32;7.30;;;5.53;;
11887;SDS011;6003;42.756;23.130;2022-10-30T00:13:59;5.60;;;4.97;;
11887;SDS011;6003;42.756;23.130;2022-10-30T00:16:26;7.70;;;5.80;;
11887;SDS011;6003;42.756;23.130;2022-10-30T00:18:53;6.60;;;4.87;;
11887;SDS011;6003;42.756;23.130;2022-10-30T00:21:19;7.07;;;5.03;;
11887;SDS011;6003;42.756;23.130;2022-10-30T00:23:46;6.00;;;5.40;;
11887;SDS011;6003;42.756;23.130;2022-10-30T00:26:16;7.53;;;5.93;;
11887;SDS011;6003;42.756;23.130;2022-10-30T00:28:47;6.57;;;5.87;;
11887;SDS011;6003;42.756;23.130;2022-10-30T00:31:15;5.93;;;5.33;;
11887;SDS011;6003;42.756;23.130;2022-10-30T00:33:41;6.13;;;5.40;;
11887;SDS011;6003;42.756;23.130;2022-10-30T00:36:08;6.27;;;5.67;;
11887;SDS011;6003;42.756;23.130;2022-10-30T00:38:35;6.53;;;5.93;;
11887;SDS011;6003;42.756;23.130;2022-10-30T00:41:02;6.27;;;5.20;;
11887;SDS011;6003;42.756;23.130;2022-10-30T00:43:32;8.17;;;5.90;;
11887;SDS011;6003;42.756;23.130;2022-10-30T00:46:02;10.53;;;6.37;;
11887;SDS011;6003;42.756;23.130;2022-10-30T00:48:33;8.10;;;6.43;;
11887;SDS011;6003;42.756;23.130;2022-10-30T00:51:01;8.20;;;5.57;;
11887;SDS011;6003;42.756;23.130;2022-10-30T00:53:31;8.07;;;5.80;;
11887;SDS011;6003;42.756;23.130;2022-10-30T00:55:59;6.90;;;5.93;;
11887;SDS011;6003;42.756;23.130;2022-10-30T00:58:28;6.13;;;5.53;;
11887;SDS011;6003;42.756;23.130;2022-10-30T01:01:03;5.83;;;5.20;;
11887;SDS011;6003;42.756;23.130;2022-10-30T01:03:33;9.03;;;5.73;;
11887;SDS011;6003;42.756;23.130;2022-10-30T01:06:02;6.47;;;5.13;;
11887;SDS011;6003;42.756;23.130;2022-10-30T01:08:31;7.50;;;6.10;;
11887;SDS011;6003;42.756;23.130;2022-10-30T01:10:59;6.40;;;5.27;;
11887;SDS011;6003;42.756;23.130;2022-10-30T01:13:28;8.03;;;5.67;;
11887;SDS011;6003;42.756;23.130;2022-10-30T01:16:02;9.53;;;6.00;;
11887;SDS011;6003;42.756;23.130;2022-10-30T01:18:41;7.37;;;5.70;;
11887;SDS011;6003;42.756;23.130;2022-10-30T01:21:21;7.87;;;5.57;;
11887;SDS011;6003;42.756;23.130;2022-10-30T01:24:04;8.00;;;5.93;;
11887;SDS011;6003;42.756;23.130;2022-10-30T01:26:46;6.90;;;5.97;;
11887;SDS011;6003;42.756;23.130;2022-10-30T01:29:21;7.70;;;6.00;;
11887;SDS011;6003;42.756;23.130;2022-10-30T01:32:04;8.30;;;6.03;;
11887;SDS011;6003;42.756;23.130;2022-10-30T01:34:42;5.90;;;5.27;;
11887;SDS011;6003;42.756;23.130;2022-10-30T01:37:18;8.07;;;5.20;;
11887;SDS011;6003;42.756;23.130;2022-10-30T01:39:50;6.17;;;5.57;;
11887;SDS011;6003;42.756;23.130;2022-10-30T01:45:21;8.60;;;6.30;;
11887;SDS011;6003;42.756;23.130;2022-10-30T01:51:01;6.47;;;5.73;;
11887;SDS011;6003;42.756;23.130;2022-10-30T01:53:42;7.53;;;6.27;;
11887;SDS011;6003;42.756;23.130;2022-10-30T01:56:18;7.23;;;5.37;;
11887;SDS011;6003;42.756;23.130;2022-10-30T01:58:54;6.43;;;5.83;;
11887;SDS011;6003;42.756;23.130;2022-10-30T02:01:27;6.93;;;6.10;;
11887;SDS011;6003;42.756;23.130;2022-10-30T02:03:58;5.47;;;4.87;;
11887;SDS011;6003;42.756;23.130;2022-10-30T02:06:26;6.73;;;5.87;;
11887;SDS011;6003;42.756;23.130;2022-10-30T02:08:53;6.57;;;5.83;;
11887;SDS011;6003;42.756;23.130;2022-10-30T02:11:20;7.80;;;6.47;;
11887;SDS011;6003;42.756;23.130;2022-10-30T02:13:49;8.70;;;5.90;;
11887;SDS011;6003;42.756;23.130;2022-10-30T02:16:18;6.90;;;6.07;;
11887;SDS011;6003;42.756;23.130;2022-10-30T02:18:45;7.83;;;5.90;;
11887;SDS011;6003;42.756;23.130;2022-10-30T02:21:14;8.57;;;6.97;;
11887;SDS011;6003;42.756;23.130;2022-10-30T02:23:41;10.77;;;6.30;;
11887;SDS011;6003;42.756;23.130;2022-10-30T02:26:08;9.90;;;6.60;;
11887;SDS011;6003;42.756;23.130;2022-10-30T02:28:35;11.23;;;6.97;;
11887;SDS011;6003;42.756;23.130;2022-10-30T02:31:01;8.63;;;6.33;;
11887;SDS011;6003;42.756;23.130;2022-10-30T02:33:28;8.50;;;6.33;;
11887;SDS011;6003;42.756;23.130;2022-10-30T02:35:55;8.30;;;6.40;;
11887;SDS011;6003;42.756;23.130;2022-10-30T02:38:23;9.23;;;5.70;;
11887;SDS011;6003;42.756;23.130;2022-10-30T02:40:50;8.43;;;6.50;;
11887;SDS011;6003;42.756;23.130;2022-10-30T02:43:17;7.03;;;6.33;;
11887;SDS011;6003;42.756;23.130;2022-10-30T02:45:44;7.77;;;5.97;;
11887;SDS011;6003;42.756;23.130;2022-10-30T02:48:15;6.77;;;5.97;;
11887;SDS011;6003;42.756;23.130;2022-10-30T02:50:42;8.10;;;6.33;;
11887;SDS011;6003;42.756;23.130;2022-10-30T02:53:09;6.23;;;5.63;;
11887;SDS011;6003;42.756;23.130;2022-10-30T02:55:38;7.13;;;5.77;;
11887;SDS011;6003;42.756;23.130;2022-10-30T02:58:04;8.90;;;6.43;;
11887;SDS011;6003;42.756;23.130;2022-10-30T03:00:31;7.67;;;5.27;;
11887;SDS011;6003;42.756;23.130;2022-10-30T03:02:58;7.40;;;5.70;;
11887;SDS011;6003;42.756;23.130;2022-10-30T03:05:25;8.90;;;5.83;;
11887;SDS011;6003;42.756;23.130;2022-10-30T03:07:52;8.90;;;5.87;;
11887;SDS011;6003;42.756;23.130;2022-10-30T03:10:19;12.40;;;6.83;;
11887;SDS011;6003;42.756;23.130;2022-10-30T03:12:48;9.87;;;7.17;;
11887;SDS011;6003;42.756;23.130;2022-10-30T03:15:15;9.17;;;7.17;;
11887;SDS011;6003;42.756;23.130;2022-10-30T03:17:42;8.53;;;6.97;;
11887;SDS011;6003;42.756;23.130;2022-10-30T03:20:09;10.57;;;7.43;;
11887;SDS011;6003;42.756;23.130;2022-10-30T03:22:36;9.53;;;7.17;;
11887;SDS011;6003;42.756;23.130;2022-10-30T03:25:03;6.70;;;5.90;;
11887;SDS011;6003;42.756;23.130;2022-10-30T03:27:31;8.27;;;5.63;;
11887;SDS011;6003;42.756;23.130;2022-10-30T03:29:59;8.20;;;6.27;;
11887;SDS011;6003;42.756;23.130;2022-10-30T03:32:26;5.63;;;5.07;;
11887;SDS011;6003;42.756;23.130;2022-10-30T03:34:52;6.30;;;5.47;;
11887;SDS011;6003;42.756;23.130;2022-10-30T03:37:19;8.37;;;6.07;;
11887;SDS011;6003;42.756;23.130;2022-10-30T03:42:33;8.00;;;5.10;;
11887;SDS011;6003;42.756;23.130;2022-10-30T03:45:07;6.30;;;5.30;;
11887;SDS011;6003;42.756;23.130;2022-10-30T03:47:34;6.83;;;5.33;;
11887;SDS011;6003;42.756;23.130;2022-10-30T03:50:04;9.37;;;5.80;;
11887;SDS011;6003;42.756;23.130;2022-10-30T03:52:31;7.07;;;6.27;;
11887;SDS011;6003;42.756;23.130;2022-10-30T03:54:58;7.03;;;6.10;;
11887;SDS011;6003;42.756;23.130;2022-10-30T03:57:25;9.50;;;6.30;;
11887;SDS011;6003;42.756;23.130;2022-10-30T03:59:52;11.23;;;6.87;;
11887;SDS011;6003;42.756;23.130;2022-10-30T04:02:20;8.23;;;5.63;;
11887;SDS011;6003;42.756;23.130;2022-10-30T04:04:47;6.97;;;5.80;;
11887;SDS011;6003;42.756;23.130;2022-10-30T04:07:14;7.83;;;5.53;;
11887;SDS011;6003;42.756;23.130;2022-10-30T04:09:41;10.90;;;6.67;;
11887;SDS011;6003;42.756;23.130;2022-10-30T04:12:08;5.73;;;5.13;;
11887;SDS011;6003;42.756;23.130;2022-10-30T04:14:35;6.07;;;5.47;;
11887;SDS011;6003;42.756;23.130;2022-10-30T04:17:02;5.17;;;4.70;;
11887;SDS011;6003;42.756;23.130;2022-10-30T04:19:31;5.77;;;5.07;;
11887;SDS011;6003;42.756;23.130;2022-10-30T04:21:58;5.50;;;5.00;;
11887;SDS011;6003;42.756;23.130;2022-10-30T04:24:25;5.90;;;5.30;;
11887;SDS011;6003;42.756;23.130;2022-10-30T04:26:51;6.53;;;5.57;;
11887;SDS011;6003;42.756;23.130;2022-10-30T04:29:18;5.20;;;4.80;;
11887;SDS011;6003;42.756;23.130;2022-10-30T04:31:45;7.30;;;5.67;;
11887;SDS011;6003;42.756;23.130;2022-10-30T04:34:12;7.20;;;6.10;;
11887;SDS011;6003;42.756;23.130;2022-10-30T04:36:40;8.57;;;6.53;;
11887;SDS011;6003;42.756;23.130;2022-10-30T04:39:08;7.83;;;5.83;;
11887;SDS011;6003;42.756;23.130;2022-10-30T04:41:35;7.40;;;6.10;;
11887;SDS011;6003;42.756;23.130;2022-10-30T04:44:02;7.63;;;6.57;;
11887;SDS011;6003;42.756;23.130;2022-10-30T04:46:30;11.17;;;6.73;;
11887;SDS011;6003;42.756;23.130;2022-10-30T04:48:57;7.60;;;6.07;;
11887;SDS011;6003;42.756;23.130;2022-10-30T04:51:23;7.50;;;6.70;;
11887;SDS011;6003;42.756;23.130;2022-10-30T04:53:52;8.03;;;6.70;;
11887;SDS011;6003;42.756;23.130;2022-10-30T04:56:19;7.50;;;6.03;;
11887;SDS011;6003;42.756;23.130;2022-10-30T05:01:45;6.03;;;5.37;;
11887;SDS011;6003;42.756;23.130;2022-10-30T05:04:12;10.83;;;5.80;;
11887;SDS011;6003;42.756;23.130;2022-10-30T05:06:39;8.53;;;5.47;;
11887;SDS011;6003;42.756;23.130;2022-10-30T05:09:08;10.50;;;5.67;;
11887;SDS011;6003;42.756;23.130;2022-10-30T05:11:35;8.47;;;6.83;;
11887;SDS011;6003;42.756;23.130;2022-10-30T05:14:01;9.33;;;6.17;;
11887;SDS011;6003;42.756;23.130;2022-10-30T05:16:28;8.43;;;6.20;;
11887;SDS011;6003;42.756;23.130;2022-10-30T05:18:55;10.37;;;5.77;;
11887;SDS011;6003;42.756;23.130;2022-10-30T05:21:22;9.63;;;6.13;;
11887;SDS011;6003;42.756;23.130;2022-10-30T05:23:49;8.33;;;6.67;;
11887;SDS011;6003;42.756;23.130;2022-10-30T05:26:17;10.10;;;6.60;;
11887;SDS011;6003;42.756;23.130;2022-10-30T05:31:46;7.93;;;6.53;;
11887;SDS011;6003;42.756;23.130;2022-10-30T05:34:12;8.77;;;6.53;;
11887;SDS011;6003;42.756;23.130;2022-10-30T05:36:39;8.83;;;6.93;;
11887;SDS011;6003;42.756;23.130;2022-10-30T05:39:06;7.63;;;6.70;;
11887;SDS011;6003;42.756;23.130;2022-10-30T05:41:34;8.37;;;6.27;;
11887;SDS011;6003;42.756;23.130;2022-10-30T05:44:01;7.07;;;6.27;;
11887;SDS011;6003;42.756;23.130;2022-10-30T05:46:27;10.23;;;6.83;;
11887;SDS011;6003;42.756;23.130;2022-10-30T05:48:54;8.57;;;6.67;;
11887;SDS011;6003;42.756;23.130;2022-10-30T05:51:21;12.27;;;7.17;;
11887;SDS011;6003;42.756;23.130;2022-10-30T05:53:48;15.07;;;7.07;;
11887;SDS011;6003;42.756;23.130;2022-10-30T05:56:15;8.07;;;6.73;;
11887;SDS011;6003;42.756;23.130;2022-10-30T05:58:43;9.23;;;6.47;;
11887;SDS011;6003;42.756;23.130;2022-10-30T06:01:10;10.27;;;7.50;;
11887;SDS011;6003;42.756;23.130;2022-10-30T06:03:37;11.83;;;7.10;;
11887;SDS011;6003;42.756;23.130;2022-10-30T06:06:04;10.20;;;7.77;;
11887;SDS011;6003;42.756;23.130;2022-10-30T06:08:31;8.50;;;7.40;;
11887;SDS011;6003;42.756;23.130;2022-10-30T06:10:58;10.77;;;7.30;;
11887;SDS011;6003;42.756;23.130;2022-10-30T06:13:25;11.57;;;8.17;;
11887;SDS011;6003;42.756;23.130;2022-10-30T06:15:54;10.43;;;8.40;;
11887;SDS011;6003;42.756;23.130;2022-10-30T06:18:21;9.33;;;8.20;;
11887;SDS011;6003;42.756;23.130;2022-10-30T06:20:48;14.07;;;10.07;;
11887;SDS011;6003;42.756;23.130;2022-10-30T06:23:16;13.03;;;9.70;;
11887;SDS011;6003;42.756;23.130;2022-10-30T06:25:43;14.57;;;8.40;;
11887;SDS011;6003;42.756;23.130;2022-10-30T06:28:09;10.13;;;7.67;;
11887;SDS011;6003;42.756;23.130;2022-10-30T06:30:37;11.43;;;7.67;;
11887;SDS011;6003;42.756;23.130;2022-10-30T06:33:05;10.37;;;7.17;;
11887;SDS011;6003;42.756;23.130;2022-10-30T06:35:32;8.50;;;6.87;;
11887;SDS011;6003;42.756;23.130;2022-10-30T06:37:59;7.10;;;6.33;;
11887;SDS011;6003;42.756;23.130;2022-10-30T06:40:26;9.23;;;7.00;;
11887;SDS011;6003;42.756;23.130;2022-10-30T06:42:54;8.03;;;6.27;;
11887;SDS011;6003;42.756;23.130;2022-10-30T06:45:22;8.37;;;7.13;;
11887;SDS011;6003;42.756;23.130;2022-10-30T06:47:50;7.57;;;6.60;;
11887;SDS011;6003;42.756;23.130;2022-10-30T06:50:19;9.70;;;7.23;;
11887;SDS011;6003;42.756;23.130;2022-10-30T06:52:48;9.13;;;6.97;;
11887;SDS011;6003;42.756;23.130;2022-10-30T06:55:15;7.77;;;6.10;;
11887;SDS011;6003;42.756;23.130;2022-10-30T06:57:42;8.90;;;6.43;;
11887;SDS011;6003;42.756;23.130;2022-10-30T07:00:09;8.77;;;6.73;;
11887;SDS011;6003;42.756;23.130;2022-10-30T07:02:37;9.70;;;6.97;;
11887;SDS011;6003;42.756;23.130;2022-10-30T07:05:04;7.77;;;6.57;;
11887;SDS011;6003;42.756;23.130;2022-10-30T07:07:32;9.57;;;7.07;;
11887;SDS011;6003;42.756;23.130;2022-10-30T07:09:59;9.27;;;7.23;;
11887;SDS011;6003;42.756;23.130;2022-10-30T07:12:26;10.57;;;6.97;;
11887;SDS011;6003;42.756;23.130;2022-10-30T07:14:52;10.07;;;7.63;;
11887;SDS011;6003;42.756;23.130;2022-10-30T07:17:19;11.70;;;7.70;;
11887;SDS011;6003;42.756;23.130;2022-10-30T07:19:46;10.07;;;7.17;;
11887;SDS011;6003;42.756;23.130;2022-10-30T07:22:13;9.80;;;7.63;;
11887;SDS011;6003;42.756;23.130;2022-10-30T07:24:42;8.67;;;7.33;;
11887;SDS011;6003;42.756;23.130;2022-10-30T07:27:08;9.47;;;7.73;;
11887;SDS011;6003;42.756;23.130;2022-10-30T07:29:35;9.87;;;7.60;;
11887;SDS011;6003;42.756;23.130;2022-10-30T07:32:02;9.43;;;7.70;;
11887;SDS011;6003;42.756;23.130;2022-10-30T07:34:29;10.67;;;7.70;;
11887;SDS011;6003;42.756;23.130;2022-10-30T07:36:57;10.30;;;7.50;;
11887;SDS011;6003;42.756;23.130;2022-10-30T07:39:24;8.93;;;7.10;;
11887;SDS011;6003;42.756;23.130;2022-10-30T07:41:52;8.90;;;6.80;;
11887;SDS011;6003;42.756;23.130;2022-10-30T07:44:19;7.60;;;6.23;;
11887;SDS011;6003;42.756;23.130;2022-10-30T07:46:46;7.33;;;6.13;;
11887;SDS011;6003;42.756;23.130;2022-10-30T07:49:13;8.43;;;6.00;;
11887;SDS011;6003;42.756;23.130;2022-10-30T07:51:40;6.13;;;5.53;;
11887;SDS011;6003;42.756;23.130;2022-10-30T07:54:07;8.20;;;6.53;;
11887;SDS011;6003;42.756;23.130;2022-10-30T07:56:33;6.70;;;5.37;;
11887;SDS011;6003;42.756;23.130;2022-10-30T07:59:06;6.53;;;5.77;;
11887;SDS011;6003;42.756;23.130;2022-10-30T08:01:33;6.90;;;6.00;;
11887;SDS011;6003;42.756;23.130;2022-10-30T08:04:00;5.63;;;5.13;;
11887;SDS011;6003;42.756;23.130;2022-10-30T08:06:27;7.80;;;5.87;;
11887;SDS011;6003;42.756;23.130;2022-10-30T08:08:54;6.90;;;4.93;;
11887;SDS011;6003;42.756;23.130;2022-10-30T08:11:21;5.63;;;5.13;;
11887;SDS011;6003;42.756;23.130;2022-10-30T08:13:47;6.50;;;5.30;;
11887;SDS011;6003;42.756;23.130;2022-10-30T08:16:16;8.97;;;5.87;;
11887;SDS011;6003;42.756;23.130;2022-10-30T08:18:43;7.67;;;5.37;;
11887;SDS011;6003;42.756;23.130;2022-10-30T08:21:10;6.10;;;5.50;;
11887;SDS011;6003;42.756;23.130;2022-10-30T08:23:37;7.17;;;5.50;;
11887;SDS011;6003;42.756;23.130;2022-10-30T08:26:04;7.07;;;5.93;;
11887;SDS011;6003;42.756;23.130;2022-10-30T08:28:31;6.60;;;5.63;;
11887;SDS011;6003;42.756;23.130;2022-10-30T08:30:58;5.97;;;5.37;;
11887;SDS011;6003;42.756;23.130;2022-10-30T08:33:27;6.57;;;5.70;;
11887;SDS011;6003;42.756;23.130;2022-10-30T08:35:55;6.10;;;5.50;;
11887;SDS011;6003;42.756;23.130;2022-10-30T08:38:23;6.33;;;5.27;;
11887;SDS011;6003;42.756;23.130;2022-10-30T08:40:51;5.70;;;5.20;;
11887;SDS011;6003;42.756;23.130;2022-10-30T08:43:18;6.87;;;5.30;;
11887;SDS011;6003;42.756;23.130;2022-10-30T08:45:46;6.73;;;5.67;;
11887;SDS011;6003;42.756;23.130;2022-10-30T08:48:13;5.90;;;4.27;;
11887;SDS011;6003;42.756;23.130;2022-10-30T08:50:42;4.83;;;4.43;;
11887;SDS011;6003;42.756;23.130;2022-10-30T08:53:10;5.30;;;4.60;;
11887;SDS011;6003;42.756;23.130;2022-10-30T08:55:38;6.47;;;5.10;;
11887;SDS011;6003;42.756;23.130;2022-10-30T08:58:05;5.93;;;5.13;;
11887;SDS011;6003;42.756;23.130;2022-10-30T09:00:32;5.43;;;4.67;;
11887;SDS011;6003;42.756;23.130;2022-10-30T09:02:59;7.97;;;5.53;;
11887;SDS011;6003;42.756;23.130;2022-10-30T09:05:26;6.37;;;5.37;;
11887;SDS011;6003;42.756;23.130;2022-10-30T09:07:55;6.77;;;5.33;;
11887;SDS011;6003;42.756;23.130;2022-10-30T09:13:32;6.83;;;5.47;;
11887;SDS011;6003;42.756;23.130;2022-10-30T09:15:59;4.70;;;4.30;;
11887;SDS011;6003;42.756;23.130;2022-10-30T09:18:26;4.97;;;4.47;;
11887;SDS011;6003;42.756;23.130;2022-10-30T09:20:53;5.00;;;4.43;;
11887;SDS011;6003;42.756;23.130;2022-10-30T09:23:21;6.20;;;4.43;;
11887;SDS011;6003;42.756;23.130;2022-10-30T09:25:49;4.33;;;3.97;;
11887;SDS011;6003;42.756;23.130;2022-10-30T09:28:15;4.33;;;3.90;;
11887;SDS011;6003;42.756;23.130;2022-10-30T09:33:31;5.10;;;3.60;;
11887;SDS011;6003;42.756;23.130;2022-10-30T09:35:58;4.37;;;3.97;;
11887;SDS011;6003;42.756;23.130;2022-10-30T09:38:28;4.83;;;4.13;;
11887;SDS011;6003;42.756;23.130;2022-10-30T09:41:01;5.53;;;4.30;;
11887;SDS011;6003;42.756;23.130;2022-10-30T09:43:45;3.60;;;3.30;;
11887;SDS011;6003;42.756;23.130;2022-10-30T09:46:26;5.03;;;3.33;;
11887;SDS011;6003;42.756;23.130;2022-10-30T09:49:14;3.60;;;3.30;;
11887;SDS011;6003;42.756;23.130;2022-10-30T09:54:44;4.13;;;3.73;;
11887;SDS011;6003;42.756;23.130;2022-10-30T09:57:24;4.07;;;3.00;;
11887;SDS011;6003;42.756;23.130;2022-10-30T10:00:15;4.50;;;2.87;;
11887;SDS011;6003;42.756;23.130;2022-10-30T10:02:51;3.30;;;3.00;;
11887;SDS011;6003;42.756;23.130;2022-10-30T10:05:25;3.23;;;2.80;;
11887;SDS011;6003;42.756;23.130;2022-10-30T10:07:56;3.33;;;2.87;;
11887;SDS011;6003;42.756;23.130;2022-10-30T10:10:31;3.20;;;3.00;;
11887;SDS011;6003;42.756;23.130;2022-10-30T10:13:04;3.83;;;3.00;;
11887;SDS011;6003;42.756;23.130;2022-10-30T10:15:37;4.20;;;3.80;;
11887;SDS011;6003;42.756;23.130;2022-10-30T10:18:11;3.50;;;3.13;;
11887;SDS011;6003;42.756;23.130;2022-10-30T10:20:44;3.13;;;2.63;;
11887;SDS011;6003;42.756;23.130;2022-10-30T10:23:16;2.57;;;2.37;;
11887;SDS011;6003;42.756;23.130;2022-10-30T10:25:46;2.67;;;2.53;;
11887;SDS011;6003;42.756;23.130;2022-10-30T10:28:22;2.70;;;2.50;;
11887;SDS011;6003;42.756;23.130;2022-10-30T10:31:08;2.60;;;2.40;;
11887;SDS011;6003;42.756;23.130;2022-10-30T10:33:43;2.20;;;2.10;;
11887;SDS011;6003;42.756;23.130;2022-10-30T10:36:22;2.83;;;2.50;;
11887;SDS011;6003;42.756;23.130;2022-10-30T10:39:04;2.93;;;2.73;;
11887;SDS011;6003;42.756;23.130;2022-10-30T10:41:46;2.70;;;2.50;;
11887;SDS011;6003;42.756;23.130;2022-10-30T10:44:35;2.30;;;1.90;;
11887;SDS011;6003;42.756;23.130;2022-10-30T10:47:15;1.90;;;1.80;;
11887;SDS011;6003;42.756;23.130;2022-10-30T10:49:56;3.10;;;1.93;;
11887;SDS011;6003;42.756;23.130;2022-10-30T10:52:37;1.70;;;1.60;;
11887;SDS011;6003;42.756;23.130;2022-10-30T10:55:12;3.23;;;2.93;;
11887;SDS011;6003;42.756;23.130;2022-10-30T10:57:43;2.40;;;2.30;;
11887;SDS011;6003;42.756;23.130;2022-10-30T11:00:15;3.20;;;2.43;;
11887;SDS011;6003;42.756;23.130;2022-10-30T11:02:46;2.67;;;2.47;;
11887;SDS011;6003;42.756;23.130;2022-10-30T11:05:24;2.17;;;1.77;;
11887;SDS011;6003;42.756;23.130;2022-10-30T11:07:56;1.87;;;1.70;;
11887;SDS011;6003;42.756;23.130;2022-10-30T11:10:26;1.53;;;1.43;;
11887;SDS011;6003;42.756;23.130;2022-10-30T11:12:54;1.13;;;1.13;;
11887;SDS011;6003;42.756;23.130;2022-10-30T11:15:33;1.53;;;1.43;;
11887;SDS011;6003;42.756;23.130;2022-10-30T11:18:06;1.30;;;1.30;;
11887;SDS011;6003;42.756;23.130;2022-10-30T11:20:39;1.30;;;1.20;;
11887;SDS011;6003;42.756;23.130;2022-10-30T11:23:29;1.10;;;1.10;;
11887;SDS011;6003;42.756;23.130;2022-10-30T11:25:57;1.10;;;1.10;;
11887;SDS011;6003;42.756;23.130;2022-10-30T11:28:35;1.87;;;1.30;;
11887;SDS011;6003;42.756;23.130;2022-10-30T11:31:16;1.10;;;1.10;;
11887;SDS011;6003;42.756;23.130;2022-10-30T11:33:45;3.27;;;1.30;;
11887;SDS011;6003;42.756;23.130;2022-10-30T11:36:13;1.40;;;1.30;;
11887;SDS011;6003;42.756;23.130;2022-10-30T11:38:41;1.33;;;1.23;;
11887;SDS011;6003;42.756;23.130;2022-10-30T11:41:08;1.47;;;1.37;;
11887;SDS011;6003;42.756;23.130;2022-10-30T11:43:38;1.30;;;1.20;;
11887;SDS011;6003;42.756;23.130;2022-10-30T11:46:06;1.07;;;1.07;;
11887;SDS011;6003;42.756;23.130;2022-10-30T11:48:44;3.40;;;1.40;;
11887;SDS011;6003;42.756;23.130;2022-10-30T11:51:13;1.13;;;1.10;;
11887;SDS011;6003;42.756;23.130;2022-10-30T11:53:59;1.40;;;1.30;;
11887;SDS011;6003;42.756;23.130;2022-10-30T11:56:27;1.33;;;1.17;;
11887;SDS011;6003;42.756;23.130;2022-10-30T11:58:58;1.40;;;1.30;;
11887;SDS011;6003;42.756;23.130;2022-10-30T12:01:28;2.20;;;1.50;;
11887;SDS011;6003;42.756;23.130;2022-10-30T12:03:56;1.13;;;1.13;;
11887;SDS011;6003;42.756;23.130;2022-10-30T12:06:39;1.70;;;1.47;;
11887;SDS011;6003;42.756;23.130;2022-10-30T12:09:09;1.20;;;1.20;;
11887;SDS011;6003;42.756;23.130;2022-10-30T12:11:38;2.10;;;1.10;;
11887;SDS011;6003;42.756;23.130;2022-10-30T12:14:13;1.33;;;1.33;;
11887;SDS011;6003;42.756;23.130;2022-10-30T12:16:43;1.17;;;1.17;;
11887;SDS011;6003;42.756;23.130;2022-10-30T12:19:12;1.10;;;1.10;;
11887;SDS011;6003;42.756;23.130;2022-10-30T12:21:42;1.30;;;1.30;;
11887;SDS011;6003;42.756;23.130;2022-10-30T12:24:13;1.10;;;1.10;;
11887;SDS011;6003;42.756;23.130;2022-10-30T12:26:45;2.67;;;1.40;;
11887;SDS011;6003;42.756;23.130;2022-10-30T12:29:15;1.33;;;1.23;;
11887;SDS011;6003;42.756;23.130;2022-10-30T12:31:45;1.77;;;1.40;;
11887;SDS011;6003;42.756;23.130;2022-10-30T12:34:25;1.10;;;1.10;;
11887;SDS011;6003;42.756;23.130;2022-10-30T12:36:55;1.10;;;1.10;;
11887;SDS011;6003;42.756;23.130;2022-10-30T12:39:30;1.10;;;1.10;;
11887;SDS011;6003;42.756;23.130;2022-10-30T12:42:10;1.87;;;1.30;;
11887;SDS011;6003;42.756;23.130;2022-10-30T12:44:42;2.20;;;1.10;;
11887;SDS011;6003;42.756;23.130;2022-10-30T12:47:13;0.93;;;0.93;;
11887;SDS011;6003;42.756;23.130;2022-10-30T12:49:48;1.20;;;1.20;;
11887;SDS011;6003;42.756;23.130;2022-10-30T12:52:18;3.43;;;1.30;;
11887;SDS011;6003;42.756;23.130;2022-10-30T12:54:48;1.37;;;1.10;;
11887;SDS011;6003;42.756;23.130;2022-10-30T12:57:19;1.00;;;1.00;;
11887;SDS011;6003;42.756;23.130;2022-10-30T12:59:55;1.40;;;1.00;;
11887;SDS011;6003;42.756;23.130;2022-10-30T13:05:23;1.17;;;1.17;;
11887;SDS011;6003;42.756;23.130;2022-10-30T13:07:57;1.67;;;1.23;;
11887;SDS011;6003;42.756;23.130;2022-10-30T13:10:33;1.50;;;1.40;;
11887;SDS011;6003;42.756;23.130;2022-10-30T13:13:08;1.60;;;1.17;;
11887;SDS011;6003;42.756;23.130;2022-10-30T13:15:42;1.80;;;1.43;;
11887;SDS011;6003;42.756;23.130;2022-10-30T13:18:13;5.63;;;1.40;;
11887;SDS011;6003;42.756;23.130;2022-10-30T13:20:43;2.27;;;1.40;;
11887;SDS011;6003;42.756;23.130;2022-10-30T13:23:27;1.33;;;1.23;;
11887;SDS011;6003;42.756;23.130;2022-10-30T13:26:06;1.10;;;1.10;;
11887;SDS011;6003;42.756;23.130;2022-10-30T13:28:40;1.50;;;1.40;;
11887;SDS011;6003;42.756;23.130;2022-10-30T13:31:17;4.20;;;1.40;;
11887;SDS011;6003;42.756;23.130;2022-10-30T13:33:53;1.47;;;1.37;;
11887;SDS011;6003;42.756;23.130;2022-10-30T13:36:30;1.47;;;1.37;;
11887;SDS011;6003;42.756;23.130;2022-10-30T13:39:07;1.40;;;1.30;;
11887;SDS011;6003;42.756;23.130;2022-10-30T13:41:45;2.60;;;1.43;;
11887;SDS011;6003;42.756;23.130;2022-10-30T13:44:27;1.30;;;1.23;;
11887;SDS011;6003;42.756;23.130;2022-10-30T13:47:08;1.20;;;1.20;;
11887;SDS011;6003;42.756;23.130;2022-10-30T13:49:48;1.73;;;1.60;;
11887;SDS011;6003;42.756;23.130;2022-10-30T13:52:27;1.40;;;1.30;;
11887;SDS011;6003;42.756;23.130;2022-10-30T13:55:01;1.77;;;1.67;;
11887;SDS011;6003;42.756;23.130;2022-10-30T13:57:33;1.80;;;1.70;;
11887;SDS011;6003;42.756;23.130;2022-10-30T14:00:05;1.40;;;1.30;;
11887;SDS011;6003;42.756;23.130;2022-10-30T14:02:45;2.43;;;1.50;;
11887;SDS011;6003;42.756;23.130;2022-10-30T14:05:33;1.80;;;1.70;;
11887;SDS011;6003;42.756;23.130;2022-10-30T14:08:05;2.13;;;1.33;;
11887;SDS011;6003;42.756;23.130;2022-10-30T14:10:43;3.70;;;1.60;;
11887;SDS011;6003;42.756;23.130;2022-10-30T14:13:13;1.97;;;1.50;;
11887;SDS011;6003;42.756;23.130;2022-10-30T14:15:43;1.83;;;1.73;;
11887;SDS011;6003;42.756;23.130;2022-10-30T14:18:28;1.43;;;1.43;;
11887;SDS011;6003;42.756;23.130;2022-10-30T14:20:57;1.50;;;1.43;;
11887;SDS011;6003;42.756;23.130;2022-10-30T14:23:44;1.47;;;1.47;;
11887;SDS011;6003;42.756;23.130;2022-10-30T14:26:12;1.80;;;1.70;;
11887;SDS011;6003;42.756;23.130;2022-10-30T14:28:41;1.83;;;1.73;;
11887;SDS011;6003;42.756;23.130;2022-10-30T14:31:10;3.10;;;1.80;;
11887;SDS011;6003;42.756;23.130;2022-10-30T14:33:49;1.80;;;1.70;;
11887;SDS011;6003;42.756;23.130;2022-10-30T14:36:20;1.63;;;1.53;;
11887;SDS011;6003;42.756;23.130;2022-10-30T14:38:58;2.57;;;1.90;;
11887;SDS011;6003;42.756;23.130;2022-10-30T14:41:31;1.70;;;1.60;;
11887;SDS011;6003;42.756;23.130;2022-10-30T14:50:14;2.00;;;1.90;;
11887;SDS011;6003;42.756;23.130;2022-10-30T14:52:50;5.47;;;2.33;;
11887;SDS011;6003;42.756;23.130;2022-10-30T14:55:32;2.20;;;2.00;;
11887;SDS011;6003;42.756;23.130;2022-10-30T14:58:14;4.63;;;2.00;;
11887;SDS011;6003;42.756;23.130;2022-10-30T15:00:44;2.37;;;2.00;;
11887;SDS011;6003;42.756;23.130;2022-10-30T15:03:16;2.70;;;1.80;;
11887;SDS011;6003;42.756;23.130;2022-10-30T15:06:11;2.17;;;1.97;;
11887;SDS011;6003;42.756;23.130;2022-10-30T15:08:59;2.03;;;1.83;;
11887;SDS011;6003;42.756;23.130;2022-10-30T15:11:43;5.00;;;2.07;;
11887;SDS011;6003;42.756;23.130;2022-10-30T15:14:23;2.00;;;1.90;;
11887;SDS011;6003;42.756;23.130;2022-10-30T15:16:54;4.47;;;2.47;;
11887;SDS011;6003;42.756;23.130;2022-10-30T15:19:21;2.33;;;2.17;;
11887;SDS011;6003;42.756;23.130;2022-10-30T15:21:51;2.63;;;2.20;;
11887;SDS011;6003;42.756;23.130;2022-10-30T15:24:21;2.37;;;2.10;;
11887;SDS011;6003;42.756;23.130;2022-10-30T15:26:50;3.40;;;2.40;;
11887;SDS011;6003;42.756;23.130;2022-10-30T15:32:39;2.23;;;2.03;;
11887;SDS011;6003;42.756;23.130;2022-10-30T15:35:09;2.67;;;2.27;;
11887;SDS011;6003;42.756;23.130;2022-10-30T15:37:56;2.30;;;2.10;;
11887;SDS011;6003;42.756;23.130;2022-10-30T15:40:27;2.03;;;1.87;;
11887;SDS011;6003;42.756;23.130;2022-10-30T15:42:55;3.33;;;1.97;;